createdAt,value
2023-03-06T00:00:25.005Z,-0.300
2023-03-06T00:02:10.173Z,-0.300
2023-03-06T00:02:51.765Z,-0.400
2023-03-06T00:03:23.976Z,-0.400
2023-03-06T00:04:26.253Z,-0.400
2023-03-06T00:05:31.895Z,-0.400
2023-03-06T00:06:25.761Z,-0.400
2023-03-06T00:07:36.889Z,-0.400
2023-03-06T00:08:30.030Z,-0.400
2023-03-06T00:09:28.641Z,-0.400
2023-03-06T00:10:41.974Z,-0.400
2023-03-06T00:11:27.249Z,-0.400
2023-03-06T00:12:35.925Z,-0.400
2023-03-06T00:13:31.603Z,-0.400
2023-03-06T00:14:23.436Z,-0.500
2023-03-06T00:15:21.560Z,-0.500
2023-03-06T00:16:57.897Z,-0.500
2023-03-06T00:17:43.097Z,-0.500
2023-03-06T00:19:41.898Z,-0.500
2023-03-06T00:20:23.803Z,-0.500
2023-03-06T00:21:27.332Z,-0.500
2023-03-06T00:22:23.900Z,-0.500
2023-03-06T00:23:23.707Z,-0.500
2023-03-06T00:24:46.192Z,-0.500
2023-03-06T00:25:32.809Z,-0.500
2023-03-06T00:26:30.518Z,-0.500
2023-03-06T00:27:38.937Z,-0.500
2023-03-06T00:28:31.868Z,-0.500
2023-03-06T00:29:25.023Z,-0.500
2023-03-06T00:30:27.588Z,-0.500
2023-03-06T00:31:21.243Z,-0.500
2023-03-06T00:32:35.955Z,-0.500
2023-03-06T00:33:21.498Z,-0.500
2023-03-06T00:34:42.611Z,-0.500
2023-03-06T00:35:35.552Z,-0.500
2023-03-06T00:36:30.416Z,-0.500
2023-03-06T00:37:21.145Z,-0.500
2023-03-06T00:38:24.835Z,-0.600
2023-03-06T00:39:37.233Z,-0.600
2023-03-06T00:40:25.867Z,-0.600
2023-03-06T00:41:47.210Z,-0.600
2023-03-06T00:42:38.518Z,-0.600
2023-03-06T00:43:32.443Z,-0.500
2023-03-06T00:46:20.976Z,-0.500
2023-03-06T00:47:28.990Z,-0.500
2023-03-06T00:48:21.748Z,-0.500
2023-03-06T00:49:35.639Z,-0.500
2023-03-06T00:50:36.537Z,-0.600
2023-03-06T00:52:22.591Z,-0.600
2023-03-06T00:53:25.302Z,-0.600
2023-03-06T00:54:31.036Z,-0.600
2023-03-06T00:55:41.020Z,-0.700
2023-03-06T00:56:48.213Z,-0.700
2023-03-06T00:57:42.202Z,-0.700
2023-03-06T00:59:36.555Z,-0.700
2023-03-06T01:01:22.578Z,-0.700
2023-03-06T01:02:20.800Z,-0.700
2023-03-06T01:03:52.301Z,-0.700
2023-03-06T01:04:46.797Z,-0.800
2023-03-06T01:06:30.353Z,-0.800
2023-03-06T01:07:22.979Z,-0.800
2023-03-06T01:08:28.970Z,-0.800
2023-03-06T01:09:22.978Z,-0.800
2023-03-06T01:10:57.633Z,-0.850
2023-03-06T01:11:30.314Z,-0.800
2023-03-06T01:12:33.067Z,-0.800
2023-03-06T01:13:34.126Z,-0.800
2023-03-06T01:14:30.409Z,-0.900
2023-03-06T01:15:20.330Z,-0.900
2023-03-06T01:16:23.279Z,-0.900
2023-03-06T01:17:34.128Z,-0.900
2023-03-06T01:18:49.338Z,-0.900
2023-03-06T01:19:31.273Z,-0.900
2023-03-06T01:20:23.921Z,-0.900
2023-03-06T01:21:31.541Z,-0.900
2023-03-06T01:22:27.816Z,-0.800
2023-03-06T01:23:27.311Z,-0.800
2023-03-06T01:24:21.013Z,-0.800
2023-03-06T01:25:52.118Z,-0.800
2023-03-06T01:26:38.997Z,-0.800
2023-03-06T01:27:24.310Z,-0.800
2023-03-06T01:28:31.953Z,-0.800
2023-03-06T01:29:31.945Z,-0.800
2023-03-06T01:30:23.798Z,-0.800
2023-03-06T01:31:19.458Z,-0.800
2023-03-06T01:32:55.579Z,-0.800
2023-03-06T01:33:23.336Z,-0.800
2023-03-06T01:34:28.968Z,-0.800
2023-03-06T01:35:39.596Z,-0.800
2023-03-06T01:36:34.715Z,-0.800
2023-03-06T01:37:28.700Z,-0.800
2023-03-06T01:38:22.569Z,-0.800
2023-03-06T01:39:21.520Z,-0.900
2023-03-06T01:40:44.506Z,-0.800
2023-03-06T01:41:55.010Z,-0.800
2023-03-06T01:42:46.902Z,-0.800
2023-03-06T01:43:39.029Z,-0.800
2023-03-06T01:44:20.650Z,-0.900
2023-03-06T01:46:24.912Z,-0.900
2023-03-06T01:48:35.980Z,-0.900
2023-03-06T01:49:20.800Z,-1.000
2023-03-06T01:50:26.882Z,-1.000
2023-03-06T01:51:35.811Z,-1.000
2023-03-06T01:52:28.726Z,-1.000
2023-03-06T01:53:20.982Z,-1.000
2023-03-06T01:54:22.486Z,-1.000
2023-03-06T01:55:38.235Z,-1.000
2023-03-06T01:56:24.106Z,-1.000
2023-03-06T01:57:44.598Z,-1.000
2023-03-06T01:58:40.117Z,-1.000
2023-03-06T01:59:32.641Z,-1.000
2023-03-06T02:01:21.494Z,-1.000
2023-03-06T02:02:38.955Z,-1.000
2023-03-06T02:09:28.602Z,-1.000
2023-03-06T02:10:31.923Z,-1.000
2023-03-06T02:12:22.505Z,-1.000
2023-03-06T02:12:42.874Z,-1.000
2023-03-06T02:13:33.221Z,-1.100
2023-03-06T02:18:21.248Z,-1.100
2023-03-06T02:19:38.393Z,-1.100
2023-03-06T02:20:41.094Z,-1.100
2023-03-06T02:21:31.995Z,-1.100
2023-03-06T02:22:30.310Z,-1.100
2023-03-06T02:23:22.971Z,-1.100
2023-03-06T02:24:26.372Z,-1.100
2023-03-06T02:25:22.596Z,-1.100
2023-03-06T02:26:58.600Z,-1.100
2023-03-06T02:28:43.146Z,-1.100
2023-03-06T02:29:22.814Z,-1.100
2023-03-06T02:30:27.023Z,-1.100
2023-03-06T02:31:22.669Z,-1.100
2023-03-06T02:32:21.285Z,-1.100
2023-03-06T02:34:08.449Z,-1.100
2023-03-06T02:35:27.955Z,-1.100
2023-03-06T02:36:21.954Z,-1.100
2023-03-06T02:38:26.368Z,-1.100
2023-03-06T02:39:24.882Z,-1.100
2023-03-06T02:41:06.720Z,-1.100
2023-03-06T02:41:30.225Z,-1.100
2023-03-06T02:42:37.816Z,-1.100
2023-03-06T02:43:24.926Z,-1.100
2023-03-06T02:44:37.858Z,-1.100
2023-03-06T02:45:29.896Z,-1.100
2023-03-06T02:46:24.436Z,-1.100
2023-03-06T02:47:22.152Z,-1.100
2023-03-06T02:48:49.996Z,-1.100
2023-03-06T02:49:42.001Z,-1.150
2023-03-06T02:50:28.395Z,-1.200
2023-03-06T02:51:49.521Z,-1.200
2023-03-06T02:53:27.740Z,-1.200
2023-03-06T02:54:23.449Z,-1.200
2023-03-06T02:55:57.242Z,-1.200
2023-03-06T02:56:43.865Z,-1.200
2023-03-06T02:57:20.759Z,-1.200
2023-03-06T02:58:34.299Z,-1.200
2023-03-06T02:59:39.024Z,-1.200
2023-03-06T03:00:31.517Z,-1.200
2023-03-06T03:01:26.678Z,-1.200
2023-03-06T03:02:23.084Z,-1.200
2023-03-06T03:03:25.384Z,-1.200
2023-03-06T03:04:34.224Z,-1.200
2023-03-06T03:05:20.723Z,-1.200
2023-03-06T03:06:42.814Z,-1.300
2023-03-06T03:07:35.823Z,-1.300
2023-03-06T03:08:33.954Z,-1.300
2023-03-06T03:10:44.366Z,-1.300
2023-03-06T03:11:35.549Z,-1.300
2023-03-06T03:12:23.008Z,-1.300
2023-03-06T03:13:46.958Z,-1.300
2023-03-06T03:14:23.850Z,-1.300
2023-03-06T03:15:33.041Z,-1.300
2023-03-06T03:17:24.244Z,-1.300
2023-03-06T03:18:40.029Z,-1.300
2023-03-06T03:19:25.438Z,-1.300
2023-03-06T03:20:31.129Z,-1.400
2023-03-06T03:21:41.053Z,-1.400
2023-03-06T03:22:37.695Z,-1.400
2023-03-06T03:24:22.297Z,-1.400
2023-03-06T03:25:20.612Z,-1.400
2023-03-06T03:27:45.715Z,-1.400
2023-03-06T03:28:51.456Z,-1.400
2023-03-06T03:29:38.102Z,-1.400
2023-03-06T03:30:23.935Z,-1.400
2023-03-06T03:31:26.795Z,-1.400
2023-03-06T03:33:31.325Z,-1.500
2023-03-06T03:35:00.094Z,-1.500
2023-03-06T03:35:54.106Z,-1.500
2023-03-06T03:36:41.741Z,-1.500
2023-03-06T03:37:27.314Z,-1.500
2023-03-06T03:38:20.023Z,-1.500
2023-03-06T03:39:23.298Z,-1.500
2023-03-06T03:40:23.724Z,-1.500
2023-03-06T03:41:22.335Z,-1.500
2023-03-06T03:42:22.322Z,-1.500
2023-03-06T03:44:30.753Z,-1.500
2023-03-06T03:45:34.523Z,-1.500
2023-03-06T03:46:28.556Z,-1.600
2023-03-06T03:47:20.994Z,-1.600
2023-03-06T03:48:25.553Z,-1.500
2023-03-06T03:49:39.999Z,-1.500
2023-03-06T03:50:46.618Z,-1.500
2023-03-06T03:51:33.512Z,-1.600
2023-03-06T03:52:19.550Z,-1.600
2023-03-06T03:53:31.310Z,-1.600
2023-03-06T03:54:33.392Z,-1.600
2023-03-06T03:55:24.070Z,-1.600
2023-03-06T03:56:47.831Z,-1.600
2023-03-06T03:57:29.882Z,-1.700
2023-03-06T03:58:36.845Z,-1.700
2023-03-06T03:59:22.379Z,-1.700
2023-03-06T04:00:36.459Z,-1.700
2023-03-06T04:02:32.294Z,-1.700
2023-03-06T04:04:28.082Z,-1.700
2023-03-06T04:05:32.060Z,-1.700
2023-03-06T04:06:21.534Z,-1.700
2023-03-06T04:07:41.513Z,-1.700
2023-03-06T04:08:35.746Z,-1.800
2023-03-06T04:09:26.510Z,-1.800
2023-03-06T04:10:21.578Z,-1.800
2023-03-06T04:11:33.937Z,-1.800
2023-03-06T04:12:43.475Z,-1.800
2023-03-06T04:13:22.037Z,-1.800
2023-03-06T04:14:46.150Z,-1.800
2023-03-06T04:15:43.036Z,-1.800
2023-03-06T04:16:26.936Z,-1.800
2023-03-06T04:17:25.937Z,-1.800
2023-03-06T04:18:21.884Z,-1.800
2023-03-06T04:19:25.773Z,-1.800
2023-03-06T04:20:35.719Z,-1.900
2023-03-06T04:21:48.831Z,-1.900
2023-03-06T04:22:31.348Z,-1.900
2023-03-06T04:23:23.254Z,-1.900
2023-03-06T04:24:27.594Z,-1.900
2023-03-06T04:26:25.156Z,-1.900
2023-03-06T04:27:23.672Z,-1.900
2023-03-06T04:28:21.951Z,-1.900
2023-03-06T04:29:51.782Z,-1.900
2023-03-06T04:30:25.100Z,-1.900
2023-03-06T04:31:34.169Z,-1.900
2023-03-06T04:34:35.610Z,-1.900
2023-03-06T04:35:24.242Z,-1.900
2023-03-06T04:36:28.382Z,-1.900
2023-03-06T04:37:47.890Z,-1.900
2023-03-06T04:38:32.901Z,-1.900
2023-03-06T04:39:19.744Z,-1.900
2023-03-06T04:40:22.350Z,-1.900
2023-03-06T04:41:34.425Z,-1.900
2023-03-06T04:42:31.718Z,-1.900
2023-03-06T04:43:59.970Z,-1.900
2023-03-06T04:45:38.074Z,-1.900
2023-03-06T04:46:23.044Z,-1.900
2023-03-06T04:47:27.462Z,-1.900
2023-03-06T04:48:19.598Z,-1.900
2023-03-06T04:49:30.764Z,-1.900
2023-03-06T04:50:29.048Z,-1.900
2023-03-06T04:51:43.739Z,-1.900
2023-03-06T04:52:40.093Z,-1.900
2023-03-06T04:53:29.579Z,-1.900
2023-03-06T04:54:24.915Z,-1.900
2023-03-06T04:56:21.863Z,-1.900
2023-03-06T04:57:20.703Z,-1.900
2023-03-06T04:58:56.851Z,-1.900
2023-03-06T05:00:28.475Z,-1.900
2023-03-06T05:01:25.988Z,-1.900
2023-03-06T05:02:20.411Z,-1.900
2023-03-06T05:03:20.625Z,-1.900
2023-03-06T05:04:25.260Z,-1.900
2023-03-06T05:05:36.117Z,-1.900
2023-03-06T05:06:45.750Z,-1.900
2023-03-06T05:07:29.954Z,-1.900
2023-03-06T05:08:39.360Z,-1.900
2023-03-06T05:09:31.849Z,-1.900
2023-03-06T05:10:31.339Z,-2.000
2023-03-06T05:11:21.377Z,-2.000
2023-03-06T05:12:23.342Z,-2.000
2023-03-06T05:13:36.910Z,-2.000
2023-03-06T05:14:36.739Z,-2.000
2023-03-06T05:15:22.655Z,-2.000
2023-03-06T05:16:40.945Z,-2.000
2023-03-06T05:17:32.140Z,-2.000
2023-03-06T05:18:31.919Z,-2.000
2023-03-06T05:19:22.443Z,-2.000
2023-03-06T05:20:55.164Z,-2.100
2023-03-06T05:21:30.040Z,-2.100
2023-03-06T05:22:24.616Z,-2.100
2023-03-06T05:23:20.328Z,-2.100
2023-03-06T05:24:36.641Z,-2.100
2023-03-06T05:26:21.695Z,-2.100
2023-03-06T05:27:33.750Z,-2.100
2023-03-06T05:28:42.844Z,-2.100
2023-03-06T05:29:25.918Z,-2.100
2023-03-06T05:30:35.263Z,-2.100
2023-03-06T05:31:42.482Z,-2.100
2023-03-06T05:32:37.204Z,-2.100
2023-03-06T05:33:26.876Z,-2.100
2023-03-06T05:35:30.868Z,-2.200
2023-03-06T05:36:31.552Z,-2.200
2023-03-06T05:37:52.153Z,-2.200
2023-03-06T05:39:40.615Z,-2.200
2023-03-06T05:40:24.251Z,-2.200
2023-03-06T05:41:23.064Z,-2.200
2023-03-06T05:42:28.699Z,-2.200
2023-03-06T05:43:25.565Z,-2.200
2023-03-06T05:44:20.924Z,-2.300
2023-03-06T05:45:49.423Z,-2.300
2023-03-06T05:46:27.826Z,-2.300
2023-03-06T05:47:22.472Z,-2.300
2023-03-06T05:48:28.220Z,-2.300
2023-03-06T05:49:20.464Z,-2.300
2023-03-06T05:50:38.215Z,-2.300
2023-03-06T05:51:36.647Z,-2.300
2023-03-06T05:52:31.458Z,-2.300
2023-03-06T05:53:46.735Z,-2.300
2023-03-06T05:54:23.975Z,-2.300
2023-03-06T05:55:33.670Z,-2.300
2023-03-06T05:56:24.694Z,-2.300
2023-03-06T05:57:25.210Z,-2.300
2023-03-06T05:58:26.510Z,-2.300
2023-03-06T05:59:51.276Z,-2.300
2023-03-06T06:00:51.457Z,-2.300
2023-03-06T06:01:37.883Z,-2.300
2023-03-06T06:02:22.153Z,-2.300
2023-03-06T06:03:28.890Z,-2.300
2023-03-06T06:04:20.902Z,-2.400
2023-03-06T06:05:29.814Z,-2.400
2023-03-06T06:06:45.921Z,-2.400
2023-03-06T06:07:55.369Z,-2.400
2023-03-06T06:09:26.639Z,-2.400
2023-03-06T06:10:32.437Z,-2.400
2023-03-06T06:11:26.059Z,-2.400
2023-03-06T06:12:20.684Z,-2.400
2023-03-06T06:13:20.119Z,-2.400
2023-03-06T06:14:25.644Z,-2.400
2023-03-06T06:16:30.983Z,-2.400
2023-03-06T06:17:36.174Z,-2.400
2023-03-06T06:18:29.073Z,-2.400
2023-03-06T06:19:24.214Z,-2.400
2023-03-06T06:21:42.466Z,-2.400
2023-03-06T06:22:23.721Z,-2.400
2023-03-06T06:24:28.820Z,-2.400
2023-03-06T06:25:24.319Z,-2.400
2023-03-06T06:26:27.939Z,-2.400
2023-03-06T06:27:25.700Z,-2.400
2023-03-06T06:29:48.873Z,-2.500
2023-03-06T06:30:35.502Z,-2.400
2023-03-06T06:31:23.163Z,-2.400
2023-03-06T06:32:37.297Z,-2.400
2023-03-06T06:33:32.068Z,-2.400
2023-03-06T06:34:24.666Z,-2.400
2023-03-06T06:36:05.639Z,-2.400
2023-03-06T06:36:19.469Z,-2.400
2023-03-06T06:37:38.546Z,-2.400
2023-03-06T06:38:25.333Z,-2.400
2023-03-06T06:39:43.222Z,-2.400
2023-03-06T06:40:36.688Z,-2.400
2023-03-06T06:41:53.016Z,-2.400
2023-03-06T07:04:26.353Z,-2.100
2023-03-06T07:06:38.508Z,-2.100
2023-03-06T07:07:25.505Z,-2.050
2023-03-06T07:08:51.821Z,-2.000
2023-03-06T07:11:29.542Z,-2.000
2023-03-06T07:14:27.967Z,-1.900
2023-03-06T07:15:56.134Z,-1.900
2023-03-06T07:16:32.568Z,-1.900
2023-03-06T07:17:35.449Z,-1.800
2023-03-06T07:19:28.575Z,-1.800
2023-03-06T07:21:20.739Z,-1.700
2023-03-06T07:22:44.766Z,-1.700
2023-03-06T07:23:48.695Z,-1.600
2023-03-06T07:24:38.101Z,-1.600
2023-03-06T07:25:25.033Z,-1.600
2023-03-06T07:26:33.485Z,-1.600
2023-03-06T07:29:53.645Z,-1.600
2023-03-06T07:30:58.008Z,-1.500
2023-03-06T07:32:26.885Z,-1.500
2023-03-06T07:33:35.250Z,-1.500
2023-03-06T07:37:56.160Z,-1.400
2023-03-06T07:38:22.322Z,-1.350
2023-03-06T07:39:32.312Z,-1.300
2023-03-06T07:40:40.105Z,-1.300
2023-03-06T07:44:28.997Z,-1.200
2023-03-06T07:45:42.535Z,-1.150
2023-03-06T07:46:34.117Z,-1.100
2023-03-06T07:47:22.461Z,-1.000
2023-03-06T07:48:37.984Z,-1.000
2023-03-06T07:52:50.659Z,-0.900
2023-03-06T07:53:38.020Z,-0.800
2023-03-06T07:54:23.838Z,-0.700
2023-03-06T07:55:25.843Z,-0.700
2023-03-06T07:56:35.593Z,-0.700
2023-03-06T07:59:53.419Z,-0.600
2023-03-06T08:00:40.444Z,-0.500
2023-03-06T08:01:26.950Z,-0.500
2023-03-06T08:02:47.947Z,-0.500
2023-03-06T08:07:36.411Z,-0.400
2023-03-06T08:08:49.329Z,-0.350
2023-03-06T08:09:51.160Z,-0.300
2023-03-06T08:11:36.253Z,-0.200
2023-03-06T08:14:46.458Z,-0.100
2023-03-06T08:15:33.245Z,-0.100
2023-03-06T08:16:54.853Z,0.000
2023-03-06T08:19:33.658Z,0.100
2023-03-06T08:22:36.595Z,0.200
2023-03-06T08:23:24.516Z,0.300
2023-03-06T08:24:38.210Z,0.300
2023-03-06T08:25:45.165Z,0.400
2023-03-06T08:27:29.616Z,0.400
2023-03-06T08:30:24.957Z,0.500
2023-03-06T08:31:56.529Z,0.600
2023-03-06T08:34:22.974Z,0.800
2023-03-06T08:35:29.370Z,0.800
2023-03-06T08:37:30.485Z,0.900
2023-03-06T08:39:00.315Z,0.900
2023-03-06T08:39:53.163Z,0.900
2023-03-06T08:40:26.140Z,0.900
2023-03-06T08:41:24.585Z,0.900
2023-03-06T08:42:30.811Z,1.000
2023-03-06T08:44:31.461Z,1.100
2023-03-06T08:46:02.016Z,1.100
2023-03-06T08:46:32.465Z,1.100
2023-03-06T08:47:40.834Z,1.100
2023-03-06T08:48:28.356Z,1.100
2023-03-06T08:49:33.846Z,1.100
2023-03-06T08:50:25.985Z,1.200
2023-03-06T08:51:22.577Z,1.200
2023-03-06T08:52:20.934Z,1.300
2023-03-06T08:53:50.014Z,1.300
2023-03-06T08:54:44.353Z,1.350
2023-03-06T08:55:44.762Z,1.400
2023-03-06T08:56:36.281Z,1.400
2023-03-06T08:57:32.961Z,1.500
2023-03-06T08:59:24.696Z,1.500
2023-03-06T09:01:02.273Z,1.600
2023-03-06T09:01:45.863Z,1.500
2023-03-06T09:02:21.429Z,1.600
2023-03-06T09:03:33.898Z,1.600
2023-03-06T09:04:33.022Z,1.600
2023-03-06T09:05:30.678Z,1.700
2023-03-06T09:07:20.280Z,1.800
2023-03-06T09:08:26.169Z,1.800
2023-03-06T09:09:39.312Z,1.850
2023-03-06T09:11:37.107Z,1.900
2023-03-06T09:12:32.632Z,1.900
2023-03-06T09:13:22.735Z,2.000
2023-03-06T09:14:19.839Z,2.000
2023-03-06T09:15:32.338Z,2.000
2023-03-06T09:16:42.356Z,2.000
2023-03-06T09:17:26.582Z,2.050
2023-03-06T09:18:42.382Z,2.100
2023-03-06T09:19:21.395Z,2.100
2023-03-06T09:20:27.818Z,2.100
2023-03-06T09:21:21.004Z,2.200
2023-03-06T09:22:32.174Z,2.200
2023-03-06T09:23:29.515Z,2.300
2023-03-06T09:24:22.956Z,2.300
2023-03-06T09:25:30.708Z,2.300
2023-03-06T09:26:46.177Z,2.300
2023-03-06T09:27:31.223Z,2.300
2023-03-06T09:28:25.476Z,2.400
2023-03-06T09:29:21.047Z,2.400
2023-03-06T09:30:29.183Z,2.400
2023-03-06T09:31:22.566Z,2.400
2023-03-06T09:32:32.727Z,2.400
2023-03-06T09:33:31.703Z,2.500
2023-03-06T09:34:24.784Z,2.600
2023-03-06T09:35:21.103Z,2.600
2023-03-06T09:36:27.548Z,2.600
2023-03-06T09:38:22.800Z,2.600
2023-03-06T09:39:22.581Z,2.700
2023-03-06T09:40:44.374Z,2.800
2023-03-06T09:41:24.746Z,2.700
2023-03-06T09:42:20.773Z,2.800
2023-03-06T09:43:26.098Z,2.800
2023-03-06T09:45:23.972Z,2.800
2023-03-06T09:46:24.282Z,2.800
2023-03-06T09:47:21.785Z,2.800
2023-03-06T09:48:25.457Z,2.900
2023-03-06T09:49:20.515Z,2.900
2023-03-06T09:50:28.944Z,3.000
2023-03-06T09:51:21.624Z,3.000
2023-03-06T09:52:23.088Z,3.000
2023-03-06T09:53:28.453Z,3.000
2023-03-06T09:54:30.372Z,3.000
2023-03-06T09:55:24.361Z,3.050
2023-03-06T09:56:22.116Z,3.100
2023-03-06T09:57:22.017Z,3.200
2023-03-06T09:58:27.126Z,3.200
2023-03-06T09:59:23.867Z,3.300
2023-03-06T10:01:44.207Z,3.500
2023-03-06T10:02:27.423Z,3.550
2023-03-06T10:03:20.808Z,3.500
2023-03-06T10:04:25.114Z,3.600
2023-03-06T10:05:32.097Z,3.600
2023-03-06T10:06:30.922Z,3.600
2023-03-06T10:07:23.296Z,3.700
2023-03-06T10:08:20.111Z,3.700
2023-03-06T10:09:24.802Z,3.700
2023-03-06T10:10:20.592Z,3.850
2023-03-06T10:11:31.024Z,3.900
2023-03-06T10:12:26.663Z,3.900
2023-03-06T10:13:23.019Z,4.000
2023-03-06T10:14:21.105Z,4.000
2023-03-06T10:15:23.947Z,4.100
2023-03-06T10:16:25.047Z,4.100
2023-03-06T10:17:20.930Z,4.250
2023-03-06T10:18:31.479Z,4.300
2023-03-06T10:19:28.820Z,4.400
2023-03-06T10:20:23.752Z,4.400
2023-03-06T10:22:23.769Z,4.300
2023-03-06T10:23:24.949Z,4.300
2023-03-06T10:24:36.094Z,4.400
2023-03-06T10:25:32.028Z,4.450
2023-03-06T10:26:21.906Z,4.500
2023-03-06T10:27:24.887Z,4.500
2023-03-06T10:28:30.950Z,4.500
2023-03-06T10:29:20.896Z,4.500
2023-03-06T10:30:21.103Z,4.500
2023-03-06T10:31:21.548Z,4.600
2023-03-06T10:32:21.325Z,4.600
2023-03-06T10:33:26.489Z,4.600
2023-03-06T10:34:25.131Z,4.700
2023-03-06T10:35:35.087Z,4.700
2023-03-06T10:36:24.777Z,4.700
2023-03-06T10:37:25.096Z,4.800
2023-03-06T10:38:21.004Z,4.800
2023-03-06T10:39:30.877Z,4.900
2023-03-06T10:40:28.584Z,5.000
2023-03-06T10:41:22.602Z,5.000
2023-03-06T10:42:35.905Z,5.000
2023-03-06T10:43:37.161Z,5.100
2023-03-06T10:45:21.424Z,5.100
2023-03-06T10:47:32.055Z,5.100
2023-03-06T10:48:22.786Z,5.100
2023-03-06T10:49:24.364Z,5.300
2023-03-06T10:50:34.491Z,5.300
2023-03-06T10:51:26.357Z,5.300
2023-03-06T10:52:22.573Z,5.400
2023-03-06T10:53:32.369Z,5.400
2023-03-06T10:54:28.963Z,5.400
2023-03-06T10:55:24.134Z,5.450
2023-03-06T10:56:34.213Z,5.500
2023-03-06T10:57:37.005Z,5.600
2023-03-06T10:58:24.610Z,5.600
2023-03-06T10:59:22.670Z,5.700
2023-03-06T11:00:24.861Z,5.700
2023-03-06T11:02:23.089Z,5.800
2023-03-06T11:03:32.679Z,5.800
2023-03-06T11:04:30.248Z,5.800
2023-03-06T11:05:27.067Z,5.800
2023-03-06T11:06:20.844Z,5.900
2023-03-06T11:07:20.974Z,6.000
2023-03-06T11:08:20.220Z,6.000
2023-03-06T11:09:22.944Z,6.100
2023-03-06T11:10:34.783Z,6.000
2023-03-06T11:11:37.467Z,6.000
2023-03-06T11:12:26.945Z,6.100
2023-03-06T11:13:20.889Z,6.100
2023-03-06T11:14:25.974Z,6.200
2023-03-06T11:15:26.966Z,6.200
2023-03-06T11:16:25.557Z,6.200
2023-03-06T11:17:23.765Z,6.300
2023-03-06T11:18:32.446Z,6.350
2023-03-06T11:19:25.081Z,6.400
2023-03-06T11:20:22.571Z,6.400
2023-03-06T11:21:31.758Z,6.400
2023-03-06T11:22:21.363Z,6.400
2023-03-06T11:23:24.527Z,6.400
2023-03-06T11:24:32.623Z,6.500
2023-03-06T11:25:29.110Z,6.500
2023-03-06T11:26:26.555Z,6.500
2023-03-06T11:27:21.787Z,6.500
2023-03-06T11:28:32.674Z,6.500
2023-03-06T11:29:28.506Z,6.500
2023-03-06T11:30:26.170Z,6.500
2023-03-06T11:33:26.302Z,6.750
2023-03-06T11:34:21.085Z,6.800
2023-03-06T11:35:30.832Z,6.800
2023-03-06T11:36:29.774Z,7.000
2023-03-06T11:37:24.267Z,7.000
2023-03-06T11:39:32.208Z,7.100
2023-03-06T11:40:25.160Z,7.000
2023-03-06T11:41:22.138Z,7.000
2023-03-06T11:42:20.242Z,7.000
2023-03-06T11:43:27.685Z,7.100
2023-03-06T11:44:27.872Z,7.100
2023-03-06T11:45:20.823Z,7.200
2023-03-06T11:46:22.623Z,7.200
2023-03-06T11:47:24.601Z,7.200
2023-03-06T11:48:22.579Z,7.300
2023-03-06T11:49:23.052Z,7.300
2023-03-06T11:50:29.804Z,7.300
2023-03-06T11:51:22.859Z,7.300
2023-03-06T11:52:24.405Z,7.300
2023-03-06T11:53:25.489Z,7.300
2023-03-06T11:54:25.102Z,7.300
2023-03-06T11:55:20.940Z,7.400
2023-03-06T11:56:27.007Z,7.450
2023-03-06T11:57:26.374Z,7.600
2023-03-06T11:58:22.868Z,7.700
2023-03-06T11:59:26.869Z,7.700
2023-03-06T12:00:21.371Z,7.700
2023-03-06T12:01:21.537Z,7.800
2023-03-06T12:02:22.627Z,7.800
2023-03-06T12:03:30.825Z,7.900
2023-03-06T12:04:29.001Z,7.900
2023-03-06T12:05:23.873Z,7.800
2023-03-06T12:06:32.776Z,7.900
2023-03-06T12:07:24.196Z,7.900
2023-03-06T12:08:31.814Z,7.900
2023-03-06T12:10:31.845Z,7.900
2023-03-06T12:11:28.042Z,7.950
2023-03-06T12:12:39.625Z,8.000
2023-03-06T12:14:30.123Z,7.900
2023-03-06T12:15:20.658Z,7.900
2023-03-06T12:16:24.712Z,8.000
2023-03-06T12:18:22.366Z,8.200
2023-03-06T12:19:27.478Z,8.200
2023-03-06T12:20:34.391Z,8.200
2023-03-06T12:21:32.925Z,8.200
2023-03-06T12:22:25.842Z,8.300
2023-03-06T12:23:21.052Z,8.200
2023-03-06T12:24:20.545Z,8.200
2023-03-06T12:25:27.248Z,8.300
2023-03-06T12:26:23.010Z,8.300
2023-03-06T12:27:32.543Z,8.300
2023-03-06T12:28:37.945Z,8.300
2023-03-06T12:29:20.542Z,8.300
2023-03-06T12:30:22.184Z,8.300
2023-03-06T12:31:24.642Z,8.300
2023-03-06T12:32:30.706Z,8.300
2023-03-06T12:33:23.165Z,8.400
2023-03-06T12:34:35.074Z,8.350
2023-03-06T12:35:30.239Z,8.400
2023-03-06T12:36:28.889Z,8.500
2023-03-06T12:37:20.822Z,8.500
2023-03-06T12:38:30.679Z,8.500
2023-03-06T12:39:22.491Z,8.500
2023-03-06T12:40:23.521Z,8.600
2023-03-06T12:41:33.472Z,8.600
2023-03-06T12:42:31.688Z,8.700
2023-03-06T12:43:27.899Z,8.700
2023-03-06T12:44:20.778Z,8.700
2023-03-06T12:45:23.578Z,8.700
2023-03-06T12:46:26.774Z,8.800
2023-03-06T12:47:24.791Z,8.900
2023-03-06T12:48:34.162Z,8.900
2023-03-06T12:49:32.859Z,8.900
2023-03-06T12:50:26.870Z,8.900
2023-03-06T12:51:20.710Z,8.900
2023-03-06T12:53:19.737Z,8.900
2023-03-06T12:56:31.564Z,8.900
2023-03-06T12:57:25.571Z,9.050
2023-03-06T12:58:37.490Z,9.200
2023-03-06T12:59:30.407Z,9.200
2023-03-06T13:00:27.240Z,9.300
2023-03-06T13:01:22.968Z,9.400
2023-03-06T13:03:31.175Z,9.400
2023-03-06T13:04:28.512Z,9.400
2023-03-06T13:05:22.411Z,9.400
2023-03-06T13:06:34.156Z,9.400
2023-03-06T13:07:31.634Z,9.500
2023-03-06T13:08:22.800Z,9.500
2023-03-06T13:09:24.412Z,9.500
2023-03-06T13:10:30.862Z,9.500
2023-03-06T13:11:25.600Z,9.500
2023-03-06T13:12:20.834Z,9.500
2023-03-06T13:13:31.838Z,9.500
2023-03-06T13:14:28.597Z,9.500
2023-03-06T13:15:25.634Z,9.500
2023-03-06T13:16:20.237Z,9.500
2023-03-06T13:17:22.025Z,9.600
2023-03-06T13:18:25.064Z,9.500
2023-03-06T13:19:20.722Z,9.600
2023-03-06T13:20:47.310Z,9.500
2023-03-06T13:21:30.131Z,9.500
2023-03-06T13:22:23.965Z,9.600
2023-03-06T13:23:24.977Z,9.600
2023-03-06T13:25:24.927Z,9.600
2023-03-06T13:26:20.497Z,9.600
2023-03-06T13:27:35.395Z,9.700
2023-03-06T13:28:26.769Z,9.700
2023-03-06T13:29:25.208Z,9.700
2023-03-06T13:30:25.743Z,9.800
2023-03-06T13:31:30.580Z,9.900
2023-03-06T13:32:22.932Z,9.900
2023-03-06T13:33:21.078Z,10.000
2023-03-06T13:34:23.887Z,10.000
2023-03-06T13:35:31.101Z,10.000
2023-03-06T13:37:29.436Z,9.900
2023-03-06T13:38:22.636Z,10.000
2023-03-06T13:39:29.572Z,10.000
2023-03-06T13:41:24.119Z,10.100
2023-03-06T13:42:30.018Z,10.100
2023-03-06T13:43:23.799Z,10.100
2023-03-06T13:44:35.561Z,10.100
2023-03-06T13:45:29.447Z,10.200
2023-03-06T13:46:19.841Z,10.100
2023-03-06T13:47:20.772Z,10.100
2023-03-06T13:48:43.556Z,10.100
2023-03-06T13:49:42.327Z,10.100
2023-03-06T13:50:24.603Z,10.150
2023-03-06T13:51:39.650Z,10.200
2023-03-06T13:52:22.563Z,10.200
2023-03-06T13:53:24.963Z,10.300
2023-03-06T13:54:21.832Z,10.300
2023-03-06T13:55:21.801Z,10.300
2023-03-06T13:56:26.521Z,10.300
2023-03-06T13:57:24.151Z,10.300
2023-03-06T13:58:33.311Z,10.300
2023-03-06T13:59:25.188Z,10.400
2023-03-06T14:00:26.382Z,10.400
2023-03-06T14:01:21.062Z,10.300
2023-03-06T14:02:25.780Z,10.300
2023-03-06T14:03:22.267Z,10.300
2023-03-06T14:04:22.686Z,10.300
2023-03-06T14:05:35.761Z,10.500
2023-03-06T14:06:29.084Z,10.600
2023-03-06T14:07:24.969Z,10.600
2023-03-06T14:08:22.169Z,10.600
2023-03-06T14:09:33.325Z,10.600
2023-03-06T14:10:26.469Z,10.600
2023-03-06T14:12:33.338Z,10.600
2023-03-06T14:13:41.852Z,10.600
2023-03-06T14:14:24.872Z,10.600
2023-03-06T14:15:22.682Z,10.600
2023-03-06T14:16:21.759Z,10.600
2023-03-06T14:17:29.991Z,10.600
2023-03-06T14:19:33.093Z,10.500
2023-03-06T14:20:35.648Z,10.500
2023-03-06T14:21:21.070Z,10.500
2023-03-06T14:22:22.458Z,10.500
2023-03-06T14:23:25.578Z,10.500
2023-03-06T14:24:33.860Z,10.500
2023-03-06T14:27:29.902Z,10.600
2023-03-06T14:28:26.515Z,10.700
2023-03-06T14:29:20.464Z,10.700
2023-03-06T14:30:31.074Z,10.800
2023-03-06T14:31:24.881Z,10.800
2023-03-06T14:32:23.106Z,10.700
2023-03-06T14:33:21.961Z,10.700
2023-03-06T14:34:30.911Z,10.700
2023-03-06T14:36:21.110Z,10.700
2023-03-06T14:37:35.697Z,10.700
2023-03-06T14:38:29.399Z,10.600
2023-03-06T14:39:25.262Z,10.600
2023-03-06T14:40:25.744Z,10.600
2023-03-06T14:41:29.277Z,10.600
2023-03-06T14:42:25.196Z,10.600
2023-03-06T14:43:20.980Z,10.600
2023-03-06T14:44:30.667Z,10.600
2023-03-06T14:45:32.068Z,10.600
2023-03-06T14:46:26.088Z,10.600
2023-03-06T14:47:33.968Z,10.700
2023-03-06T14:48:23.310Z,10.700
2023-03-06T14:49:25.099Z,10.700
2023-03-06T14:50:20.877Z,10.700
2023-03-06T14:51:31.244Z,10.700
2023-03-06T14:52:27.081Z,10.700